x

Buoy E01 - Central Maine Shelf (44032) Wave Buoy

6:04am - Tue 30th May 2017 All times are EDT. -4 hours from GMT.

  • Sig Wave height 2.6ft
  • Peak Period 6s
  • Wind
    2mph, 2mph gusts
  • Sea Temp 44°f
  • Air Temp 45°f
  • Sea Pressure 1022.2mb
  • Buoy E01 - Central Maine Shelf
  • Buoy E01 - Central Maine Shelf

More Historic Weather Station data

Upgrade to MSW Pro to gain access to the past 30 days of data for over 8000 Wavebouys and Weather Stations around the globe.

Join Pro

Comparision Forecast

View Surf forecast
   
Tue 05/30 6:04am 2.5ft 6s 2 2 mph 1022.2mb 44f 45f
5:04am 2.5ft 6s 4 4 mph 1021.3mb 44f 44f
4:04am 2.5ft 6s 4 4 mph 1020.6mb 45f 44f
3:04am 2.5ft 5s 2 4 mph 1020.7mb 45f 45f
2:04am 3ft 6s 4 7 mph 1020.8mb 45f 45f
1:04am 2.5ft 6s 4 4 mph 1020.8mb 45f 45f
12:04am 2.5ft 6s 4 7 mph 1020.7mb 45f 45f
Mon 05/29 11:04pm 2.5ft 8s 7 7 mph 1020.6mb 45f 45f
9:04pm 3.5ft 5s 9 11 mph 1020.3mb 44f 44f
8:04pm 3.5ft 5s 11 13 mph 1020.3mb 44f 44f
7:04pm 3.5ft 5s 11 11 mph 1020.3mb 45f 44f
6:04pm 4ft 5s 13 16 mph 1019.8mb 45f 44f
5:04pm 4ft 5s 16 18 mph 1019.5mb 44f 44f
4:04pm 4ft 5s 16 18 mph 1018.9mb 45f 44f
3:04pm 3.5ft 5s 18 20 mph 1018.9mb 45f 44f
2:04pm 4ft 6s 16 18 mph 1019mb 46f 43f
1:04pm 3ft 4s 20 22 mph 1018.8mb 47f 44f
12:04pm 3ft 4s 18 22 mph 1019.1mb 47f 44f
11:04am 3ft 5s 16 20 mph 1019.4mb 47f 44f
10:04am 2.5ft 4s 16 18 mph 1019.6mb 46f 44f
9:04am 2.5ft 4s 11 13 mph 1019.6mb 46f 44f
8:04am 2.5ft 4s 11 13 mph 1019.3mb 46f 44f
7:04am 3ft 8s 13 18 mph 1019mb 46f 43f
6:04am 2.5ft 8s 16 18 mph 1018.5mb 46f 44f
5:04am 2.5ft 8s 9 11 mph 1017.7mb 46f 45f
4:04am 2.5ft 5s 13 16 mph 1017.5mb 46f 45f
3:04am 1ft 3s 13 16 mph 1017mb 46f 46f
2:04am 2ft 6s 9 11 mph 1016.8mb 46f 46f
1:04am 2.5ft 8s 9 11 mph 1016.8mb 46f 46f
12:04am 2.5ft 6s 9 11 mph 1017.1mb 46f 46f
Sun 05/28 11:04pm 2.5ft 8s 9 9 mph 1017.1mb 46f 46f
10:04pm 3ft 8s 9 11 mph 1017.4mb 46f 46f
9:04pm 2ft 8s 7 9 mph 1017.1mb 46f 46f
8:04pm 2.5ft 8s 7 9 mph 1017.1mb 46f 47f
7:04pm 2ft 8s 9 11 mph 1017.1mb 47f 47f
6:04pm 2ft 8s 9 9 mph 1016.5mb 47f 48f
5:04pm 2.5ft 8s 9 11 mph 1016.8mb 47f 47f
4:04pm  -   -  11 13 mph 1016.9mb 47f 47f
3:04pm 2.5ft 11s 11 11 mph 1016.5mb 47f 47f
2:04pm 2.5ft 8s 9 11 mph 1016.2mb 47f 47f
1:04pm 2.5ft 8s 9 11 mph 1015.8mb 47f 47f
12:04pm 2.5ft 8s 11 13 mph 1015.4mb 47f 47f
11:04am 2.5ft 8s 9 11 mph 1015.9mb 47f 46f
10:04am 2.5ft 8s 9 9 mph 1016.1mb 46f 46f
9:04am 3ft 8s 4 4 mph 1017mb 45f 46f
8:04am 2.5ft 8s 4 7 mph 1015.8mb 45f 45f
7:04am 3ft 8s 7 7 mph 1014.8mb 45f 45f
6:04am 2.5ft 8s 7 7 mph 1014.3mb 44f 45f
5:04am 2.5ft 8s 2 2 mph 1014.4mb 45f 45f
4:04am 2.5ft 11s 2 2 mph 1014mb 44f 45f
3:04am 2.5ft 6s 4 4 mph 1013.6mb 44f 44f
2:04am 2.5ft 8s 2 2 mph 1013.8mb 44f 45f
1:04am 3ft 8s 2 2 mph 1014.1mb 45f 45f
12:04am 2.5ft 8s 2 2 mph 1014.3mb 44f 44f
Sat 05/27 11:04pm 3.5ft 8s 4 7 mph 1014.2mb 45f 45f
10:04pm 3.5ft 8s 7 7 mph 1014.1mb 45f 44f
9:04pm 3.5ft 8s 7 7 mph 1013.8mb 45f 45f
8:04pm 4.5ft 8s 7 7 mph 1013.2mb 45f 45f
7:04pm 3.5ft 8s 7 9 mph 1013mb 45f 46f
6:04pm 4.5ft 11s 9 11 mph 1012.7mb 44f 46f
5:04pm 3.5ft 11s 13 16 mph 1011.9mb 45f 45f
4:04pm 3ft 11s 11 11 mph 1011.4mb 45f 45f
3:04pm 3.5ft 11s 7 9 mph 1011.2mb 45f 45f
2:04pm 3.5ft 11s 9 11 mph 1011mb 45f 46f
1:04pm 3.5ft 11s 9 9 mph 1011.1mb 45f 47f
12:04pm 5ft 11s 4 7 mph 1010.9mb 45f 47f
11:04am 3.5ft 11s 2 4 mph 1010.3mb 45f 47f
10:04am 4ft 8s 2 9 mph 1010.1mb 45f 48f
9:04am 5ft 8s 4 4 mph 1009.9mb 45f 47f
8:04am 4ft 8s 7 7 mph 1009.7mb 45f 47f
7:04am 4.5ft 11s 11 13 mph 1009mb 45f 47f
6:04am 3.5ft 8s 9 11 mph 1008mb 45f 47f
5:04am 3.5ft 11s 7 11 mph 1007.4mb 45f 46f
4:04am 4ft 11s 4 7 mph 1007mb 45f 46f
3:04am 3.5ft 11s 9 11 mph 1006.6mb 45f 46f
2:04am 3.5ft 11s 9 11 mph 1006.1mb 45f 47f
1:04am 3.5ft 11s 9 13 mph 1005.7mb 45f 47f
12:04am 3.5ft 11s 7 9 mph 1005.4mb 45f 46f
Fri 05/26 11:04pm 4ft 8s 11 13 mph 1004.9mb 45f 47f
10:04pm 4.5ft 8s 7 9 mph 1004.5mb 45f 47f
9:04pm 5ft 8s 9 11 mph 1004mb 45f 47f
8:04pm 5.5ft 8s 11 13 mph 1003.2mb 45f 48f
7:04pm 6ft 8s 11 11 mph 1002.2mb 45f 47f
6:04pm 5.5ft 8s 4 7 mph 1001.5mb 45f 46f
5:04pm 6.5ft 8s 7 9 mph 1000.7mb 44f 46f
4:04pm 6.5ft 8s 13 16 mph 999.7mb 44f 47f
3:04pm 7ft 8s 16 18 mph 999.1mb 43f 46f
2:04pm 7ft 8s 20 25 mph 998.4mb 43f 45f